sensor_id;sensor_type;location;lat;lon;timestamp;P1;durP1;ratioP1;P2;durP2;ratioP2
22046;SDS011;11187;49.412;20.956;2024-03-29T00:02:29;17.35;;;16.35;;
22046;SDS011;11187;49.412;20.956;2024-03-29T00:05:09;17.58;;;16.58;;
22046;SDS011;11187;49.412;20.956;2024-03-29T00:07:47;18.02;;;16.83;;
22046;SDS011;11187;49.412;20.956;2024-03-29T00:10:27;16.75;;;15.65;;
22046;SDS011;11187;49.412;20.956;2024-03-29T00:13:05;18.42;;;17.42;;
22046;SDS011;11187;49.412;20.956;2024-03-29T00:15:45;19.25;;;17.95;;
22046;SDS011;11187;49.412;20.956;2024-03-29T00:18:24;19.10;;;18.00;;
22046;SDS011;11187;49.412;20.956;2024-03-29T00:21:04;19.67;;;18.48;;
22046;SDS011;11187;49.412;20.956;2024-03-29T00:23:49;19.05;;;17.75;;
22046;SDS011;11187;49.412;20.956;2024-03-29T00:26:23;19.17;;;18.08;;
22046;SDS011;11187;49.412;20.956;2024-03-29T00:29:08;18.08;;;16.88;;
22046;SDS011;11187;49.412;20.956;2024-03-29T00:31:41;18.88;;;17.70;;
22046;SDS011;11187;49.412;20.956;2024-03-29T00:34:26;19.77;;;18.65;;
22046;SDS011;11187;49.412;20.956;2024-03-29T00:36:59;16.65;;;15.75;;
22046;SDS011;11187;49.412;20.956;2024-03-29T00:39:45;15.05;;;14.23;;
22046;SDS011;11187;49.412;20.956;2024-03-29T00:42:17;15.15;;;14.27;;
22046;SDS011;11187;49.412;20.956;2024-03-29T00:45:03;14.07;;;13.23;;
22046;SDS011;11187;49.412;20.956;2024-03-29T00:47:35;14.43;;;13.43;;
22046;SDS011;11187;49.412;20.956;2024-03-29T00:50:21;13.32;;;12.52;;
22046;SDS011;11187;49.412;20.956;2024-03-29T00:52:53;13.18;;;12.48;;
22046;SDS011;11187;49.412;20.956;2024-03-29T00:55:39;14.70;;;13.90;;
22046;SDS011;11187;49.412;20.956;2024-03-29T00:58:11;14.60;;;13.77;;
22046;SDS011;11187;49.412;20.956;2024-03-29T01:00:57;14.10;;;13.30;;
22046;SDS011;11187;49.412;20.956;2024-03-29T01:03:29;14.07;;;13.27;;
22046;SDS011;11187;49.412;20.956;2024-03-29T01:06:14;13.80;;;12.85;;
22046;SDS011;11187;49.412;20.956;2024-03-29T01:08:47;14.05;;;13.25;;
22046;SDS011;11187;49.412;20.956;2024-03-29T01:11:40;13.57;;;12.88;;
22046;SDS011;11187;49.412;20.956;2024-03-29T01:14:33;14.18;;;13.38;;
22046;SDS011;11187;49.412;20.956;2024-03-29T01:17:05;13.02;;;12.32;;
22046;SDS011;11187;49.412;20.956;2024-03-29T01:19:51;13.85;;;13.05;;
22046;SDS011;11187;49.412;20.956;2024-03-29T01:22:23;13.45;;;12.65;;
22046;SDS011;11187;49.412;20.956;2024-03-29T01:25:09;13.05;;;12.35;;
22046;SDS011;11187;49.412;20.956;2024-03-29T01:27:44;13.88;;;13.07;;
22046;SDS011;11187;49.412;20.956;2024-03-29T01:30:30;13.48;;;12.77;;
22046;SDS011;11187;49.412;20.956;2024-03-29T01:33:02;15.10;;;14.30;;
22046;SDS011;11187;49.412;20.956;2024-03-29T01:35:48;14.60;;;13.80;;
22046;SDS011;11187;49.412;20.956;2024-03-29T01:38:20;14.27;;;13.48;;
22046;SDS011;11187;49.412;20.956;2024-03-29T01:41:06;14.10;;;13.30;;
22046;SDS011;11187;49.412;20.956;2024-03-29T01:43:38;13.63;;;12.88;;
22046;SDS011;11187;49.412;20.956;2024-03-29T01:46:24;14.90;;;14.10;;
22046;SDS011;11187;49.412;20.956;2024-03-29T01:48:56;15.52;;;14.73;;
22046;SDS011;11187;49.412;20.956;2024-03-29T01:51:42;14.00;;;13.20;;
22046;SDS011;11187;49.412;20.956;2024-03-29T01:54:16;14.52;;;13.73;;
22046;SDS011;11187;49.412;20.956;2024-03-29T01:57:03;14.15;;;13.35;;
22046;SDS011;11187;49.412;20.956;2024-03-29T01:59:36;12.68;;;11.98;;
22046;SDS011;11187;49.412;20.956;2024-03-29T02:02:23;13.98;;;13.18;;
22046;SDS011;11187;49.412;20.956;2024-03-29T02:04:55;13.07;;;12.38;;
22046;SDS011;11187;49.412;20.956;2024-03-29T02:07:50;14.20;;;13.40;;
22046;SDS011;11187;49.412;20.956;2024-03-29T02:10:43;14.63;;;13.82;;
22046;SDS011;11187;49.412;20.956;2024-03-29T02:13:17;15.18;;;14.38;;
22046;SDS011;11187;49.412;20.956;2024-03-29T02:16:03;15.18;;;14.38;;
22046;SDS011;11187;49.412;20.956;2024-03-29T02:18:35;14.50;;;13.45;;
22046;SDS011;11187;49.412;20.956;2024-03-29T02:21:21;15.05;;;14.18;;
22046;SDS011;11187;49.412;20.956;2024-03-29T02:24:07;14.18;;;13.38;;
22046;SDS011;11187;49.412;20.956;2024-03-29T02:26:48;13.05;;;12.35;;
22046;SDS011;11187;49.412;20.956;2024-03-29T02:29:29;14.27;;;13.48;;
22046;SDS011;11187;49.412;20.956;2024-03-29T02:32:09;14.90;;;13.95;;
22046;SDS011;11187;49.412;20.956;2024-03-29T02:34:48;14.07;;;13.27;;
22046;SDS011;11187;49.412;20.956;2024-03-29T02:37:27;14.23;;;13.32;;
22046;SDS011;11187;49.412;20.956;2024-03-29T02:40:06;15.20;;;14.40;;
22046;SDS011;11187;49.412;20.956;2024-03-29T02:42:45;14.45;;;13.65;;
22046;SDS011;11187;49.412;20.956;2024-03-29T02:45:26;14.05;;;13.25;;
22046;SDS011;11187;49.412;20.956;2024-03-29T02:48:05;13.80;;;13.00;;
22046;SDS011;11187;49.412;20.956;2024-03-29T02:50:44;12.48;;;11.77;;
22046;SDS011;11187;49.412;20.956;2024-03-29T02:53:30;14.75;;;13.95;;
22046;SDS011;11187;49.412;20.956;2024-03-29T02:56:02;15.85;;;14.95;;
22046;SDS011;11187;49.412;20.956;2024-03-29T02:58:48;14.75;;;13.95;;
22046;SDS011;11187;49.412;20.956;2024-03-29T03:01:20;13.93;;;13.05;;
22046;SDS011;11187;49.412;20.956;2024-03-29T03:04:06;19.90;;;16.98;;
22046;SDS011;11187;49.412;20.956;2024-03-29T03:06:38;19.27;;;17.52;;
22046;SDS011;11187;49.412;20.956;2024-03-29T03:09:24;15.93;;;14.93;;
22046;SDS011;11187;49.412;20.956;2024-03-29T03:12:15;15.48;;;14.57;;
22046;SDS011;11187;49.412;20.956;2024-03-29T03:15:01;14.75;;;13.80;;
22046;SDS011;11187;49.412;20.956;2024-03-29T03:17:33;13.98;;;13.18;;
22046;SDS011;11187;49.412;20.956;2024-03-29T03:20:19;15.98;;;15.07;;
22046;SDS011;11187;49.412;20.956;2024-03-29T03:22:51;14.52;;;13.73;;
22046;SDS011;11187;49.412;20.956;2024-03-29T03:25:37;13.45;;;12.65;;
22046;SDS011;11187;49.412;20.956;2024-03-29T03:28:09;13.07;;;12.27;;
22046;SDS011;11187;49.412;20.956;2024-03-29T03:30:55;13.15;;;12.23;;
22046;SDS011;11187;49.412;20.956;2024-03-29T03:33:27;13.10;;;12.38;;
22046;SDS011;11187;49.412;20.956;2024-03-29T03:36:13;14.00;;;13.20;;
22046;SDS011;11187;49.412;20.956;2024-03-29T03:38:45;15.73;;;14.82;;
22046;SDS011;11187;49.412;20.956;2024-03-29T03:41:31;12.23;;;11.52;;
22046;SDS011;11187;49.412;20.956;2024-03-29T03:44:03;13.25;;;12.45;;
22046;SDS011;11187;49.412;20.956;2024-03-29T03:46:49;13.88;;;13.02;;
22046;SDS011;11187;49.412;20.956;2024-03-29T03:49:21;14.10;;;13.20;;
22046;SDS011;11187;49.412;20.956;2024-03-29T03:52:07;13.20;;;12.50;;
22046;SDS011;11187;49.412;20.956;2024-03-29T03:54:46;13.27;;;12.52;;
22046;SDS011;11187;49.412;20.956;2024-03-29T03:57:25;13.60;;;12.80;;
22046;SDS011;11187;49.412;20.956;2024-03-29T04:00:07;14.38;;;13.57;;
22046;SDS011;11187;49.412;20.956;2024-03-29T04:02:50;13.15;;;12.35;;
22046;SDS011;11187;49.412;20.956;2024-03-29T04:05:29;13.48;;;12.65;;
22046;SDS011;11187;49.412;20.956;2024-03-29T04:08:15;13.75;;;12.95;;
22046;SDS011;11187;49.412;20.956;2024-03-29T04:10:56;14.07;;;13.18;;
22046;SDS011;11187;49.412;20.956;2024-03-29T04:13:35;14.52;;;13.50;;
22046;SDS011;11187;49.412;20.956;2024-03-29T04:16:15;15.73;;;14.77;;
22046;SDS011;11187;49.412;20.956;2024-03-29T04:18:54;14.52;;;13.63;;
22046;SDS011;11187;49.412;20.956;2024-03-29T04:21:33;15.55;;;14.65;;
22046;SDS011;11187;49.412;20.956;2024-03-29T04:24:12;14.60;;;13.68;;
22046;SDS011;11187;49.412;20.956;2024-03-29T04:26:51;13.75;;;12.85;;
22046;SDS011;11187;49.412;20.956;2024-03-29T04:29:37;14.70;;;13.60;;
22046;SDS011;11187;49.412;20.956;2024-03-29T04:32:09;14.60;;;13.70;;
22046;SDS011;11187;49.412;20.956;2024-03-29T04:34:55;15.52;;;14.43;;
22046;SDS011;11187;49.412;20.956;2024-03-29T04:37:27;15.77;;;14.85;;
22046;SDS011;11187;49.412;20.956;2024-03-29T04:40:13;15.13;;;14.13;;
22046;SDS011;11187;49.412;20.956;2024-03-29T04:42:45;14.57;;;13.57;;
22046;SDS011;11187;49.412;20.956;2024-03-29T04:45:31;15.38;;;14.38;;
22046;SDS011;11187;49.412;20.956;2024-03-29T04:48:03;15.75;;;14.73;;
22046;SDS011;11187;49.412;20.956;2024-03-29T04:50:50;15.88;;;14.77;;
22046;SDS011;11187;49.412;20.956;2024-03-29T04:53:22;15.32;;;14.43;;
22046;SDS011;11187;49.412;20.956;2024-03-29T04:56:08;14.30;;;13.40;;
22046;SDS011;11187;49.412;20.956;2024-03-29T04:58:40;15.23;;;14.32;;
22046;SDS011;11187;49.412;20.956;2024-03-29T05:01:33;16.40;;;15.40;;
22046;SDS011;11187;49.412;20.956;2024-03-29T05:04:07;14.82;;;13.93;;
22046;SDS011;11187;49.412;20.956;2024-03-29T05:07:02;15.77;;;14.77;;
22046;SDS011;11187;49.412;20.956;2024-03-29T05:09:55;15.32;;;14.32;;
22046;SDS011;11187;49.412;20.956;2024-03-29T05:12:27;15.38;;;14.38;;
22046;SDS011;11187;49.412;20.956;2024-03-29T05:15:13;15.85;;;14.85;;
22046;SDS011;11187;49.412;20.956;2024-03-29T05:17:47;14.90;;;13.98;;
22046;SDS011;11187;49.412;20.956;2024-03-29T05:20:33;16.35;;;15.18;;
22046;SDS011;11187;49.412;20.956;2024-03-29T05:23:05;16.95;;;15.90;;
22046;SDS011;11187;49.412;20.956;2024-03-29T05:25:53;16.33;;;15.23;;
22046;SDS011;11187;49.412;20.956;2024-03-29T05:28:32;16.15;;;15.15;;
22046;SDS011;11187;49.412;20.956;2024-03-29T05:31:12;15.13;;;14.23;;
22046;SDS011;11187;49.412;20.956;2024-03-29T05:33:52;13.52;;;12.63;;
22046;SDS011;11187;49.412;20.956;2024-03-29T05:36:32;14.55;;;13.48;;
22046;SDS011;11187;49.412;20.956;2024-03-29T05:39:11;12.52;;;11.68;;
22046;SDS011;11187;49.412;20.956;2024-03-29T05:41:51;13.80;;;12.80;;
22046;SDS011;11187;49.412;20.956;2024-03-29T05:44:37;14.93;;;13.98;;
22046;SDS011;11187;49.412;20.956;2024-03-29T05:47:30;12.45;;;11.65;;
22046;SDS011;11187;49.412;20.956;2024-03-29T05:50:02;12.38;;;11.57;;
22046;SDS011;11187;49.412;20.956;2024-03-29T05:52:49;13.32;;;12.52;;
22046;SDS011;11187;49.412;20.956;2024-03-29T05:55:25;13.48;;;12.63;;
22046;SDS011;11187;49.412;20.956;2024-03-29T05:58:18;15.18;;;14.27;;
22046;SDS011;11187;49.412;20.956;2024-03-29T06:01:11;12.45;;;11.55;;
22046;SDS011;11187;49.412;20.956;2024-03-29T06:03:43;13.02;;;12.23;;
22046;SDS011;11187;49.412;20.956;2024-03-29T06:06:33;13.57;;;12.68;;
22046;SDS011;11187;49.412;20.956;2024-03-29T06:09:05;13.05;;;12.25;;
22046;SDS011;11187;49.412;20.956;2024-03-29T06:11:51;12.50;;;11.70;;
22046;SDS011;11187;49.412;20.956;2024-03-29T06:14:26;13.48;;;12.68;;
22046;SDS011;11187;49.412;20.956;2024-03-29T06:17:31;16.48;;;15.48;;
22046;SDS011;11187;49.412;20.956;2024-03-29T06:20:04;14.40;;;13.43;;
22046;SDS011;11187;49.412;20.956;2024-03-29T06:22:50;12.73;;;11.93;;
22046;SDS011;11187;49.412;20.956;2024-03-29T06:25:22;14.18;;;13.15;;
22046;SDS011;11187;49.412;20.956;2024-03-29T06:28:08;14.90;;;14.00;;
22046;SDS011;11187;49.412;20.956;2024-03-29T06:30:47;12.77;;;11.98;;
22046;SDS011;11187;49.412;20.956;2024-03-29T06:33:27;12.45;;;11.65;;
22046;SDS011;11187;49.412;20.956;2024-03-29T06:36:06;13.95;;;13.15;;
22046;SDS011;11187;49.412;20.956;2024-03-29T06:38:45;12.80;;;12.00;;
22046;SDS011;11187;49.412;20.956;2024-03-29T06:41:24;13.02;;;12.23;;
22046;SDS011;11187;49.412;20.956;2024-03-29T06:44:03;13.60;;;12.88;;
22046;SDS011;11187;49.412;20.956;2024-03-29T06:46:42;14.23;;;13.32;;
22046;SDS011;11187;49.412;20.956;2024-03-29T06:49:21;10.70;;;10.00;;
22046;SDS011;11187;49.412;20.956;2024-03-29T06:52:00;10.77;;;9.85;;
22046;SDS011;11187;49.412;20.956;2024-03-29T06:54:46;12.13;;;11.43;;
22046;SDS011;11187;49.412;20.956;2024-03-29T06:57:18;12.00;;;11.20;;
22046;SDS011;11187;49.412;20.956;2024-03-29T07:00:15;10.18;;;9.57;;
22046;SDS011;11187;49.412;20.956;2024-03-29T07:03:08;10.80;;;10.10;;
22046;SDS011;11187;49.412;20.956;2024-03-29T07:05:40;11.57;;;10.68;;
22046;SDS011;11187;49.412;20.956;2024-03-29T07:08:27;10.02;;;9.32;;
22046;SDS011;11187;49.412;20.956;2024-03-29T07:11:00;11.32;;;10.63;;
22046;SDS011;11187;49.412;20.956;2024-03-29T07:13:46;10.75;;;9.93;;
22046;SDS011;11187;49.412;20.956;2024-03-29T07:16:18;9.50;;;8.90;;
22046;SDS011;11187;49.412;20.956;2024-03-29T07:19:04;11.20;;;10.52;;
22046;SDS011;11187;49.412;20.956;2024-03-29T07:21:36;10.50;;;9.90;;
22046;SDS011;11187;49.412;20.956;2024-03-29T07:24:22;10.60;;;9.80;;
22046;SDS011;11187;49.412;20.956;2024-03-29T07:26:54;12.85;;;12.05;;
22046;SDS011;11187;49.412;20.956;2024-03-29T07:29:40;11.85;;;11.15;;
22046;SDS011;11187;49.412;20.956;2024-03-29T07:32:21;10.45;;;9.82;;
22046;SDS011;11187;49.412;20.956;2024-03-29T07:35:00;9.75;;;9.05;;
22046;SDS011;11187;49.412;20.956;2024-03-29T07:37:39;12.45;;;11.65;;
22046;SDS011;11187;49.412;20.956;2024-03-29T07:40:21;17.15;;;16.02;;
22046;SDS011;11187;49.412;20.956;2024-03-29T07:43:07;12.13;;;11.43;;
22046;SDS011;11187;49.412;20.956;2024-03-29T07:46:00;10.98;;;10.27;;
22046;SDS011;11187;49.412;20.956;2024-03-29T07:48:54;12.35;;;11.55;;
22046;SDS011;11187;49.412;20.956;2024-03-29T07:51:26;11.82;;;11.10;;
22046;SDS011;11187;49.412;20.956;2024-03-29T07:54:12;11.32;;;10.63;;
22046;SDS011;11187;49.412;20.956;2024-03-29T07:56:44;11.02;;;10.32;;
22046;SDS011;11187;49.412;20.956;2024-03-29T07:59:37;11.30;;;10.60;;
22046;SDS011;11187;49.412;20.956;2024-03-29T08:02:10;12.00;;;11.20;;
22046;SDS011;11187;49.412;20.956;2024-03-29T08:05:03;11.50;;;10.75;;
22046;SDS011;11187;49.412;20.956;2024-03-29T08:07:35;11.05;;;10.43;;
22046;SDS011;11187;49.412;20.956;2024-03-29T08:10:28;12.93;;;12.13;;
22046;SDS011;11187;49.412;20.956;2024-03-29T08:13:00;10.35;;;9.75;;
22046;SDS011;11187;49.412;20.956;2024-03-29T08:16:00;10.70;;;10.00;;
22046;SDS011;11187;49.412;20.956;2024-03-29T08:18:32;14.55;;;13.50;;
22046;SDS011;11187;49.412;20.956;2024-03-29T08:21:18;13.60;;;12.80;;
22046;SDS011;11187;49.412;20.956;2024-03-29T08:23:57;11.80;;;11.10;;
22046;SDS011;11187;49.412;20.956;2024-03-29T08:26:43;14.95;;;14.05;;
22046;SDS011;11187;49.412;20.956;2024-03-29T08:29:22;11.27;;;10.43;;
22046;SDS011;11187;49.412;20.956;2024-03-29T08:32:08;11.93;;;11.13;;
22046;SDS011;11187;49.412;20.956;2024-03-29T08:34:49;12.88;;;12.07;;
22046;SDS011;11187;49.412;20.956;2024-03-29T08:37:35;11.32;;;10.73;;
22046;SDS011;11187;49.412;20.956;2024-03-29T08:40:14;11.18;;;10.50;;
22046;SDS011;11187;49.412;20.956;2024-03-29T08:42:54;12.25;;;11.55;;
22046;SDS011;11187;49.412;20.956;2024-03-29T08:45:34;10.40;;;9.80;;
22046;SDS011;11187;49.412;20.956;2024-03-29T08:48:22;10.95;;;10.10;;
22046;SDS011;11187;49.412;20.956;2024-03-29T08:51:03;12.65;;;11.75;;
22046;SDS011;11187;49.412;20.956;2024-03-29T08:53:42;12.10;;;11.30;;
22046;SDS011;11187;49.412;20.956;2024-03-29T08:56:21;14.60;;;10.50;;
22046;SDS011;11187;49.412;20.956;2024-03-29T08:59:07;11.25;;;10.00;;
22046;SDS011;11187;49.412;20.956;2024-03-29T09:01:42;13.70;;;11.27;;
22046;SDS011;11187;49.412;20.956;2024-03-29T09:04:29;10.43;;;9.73;;
22046;SDS011;11187;49.412;20.956;2024-03-29T09:07:01;10.40;;;9.60;;
22046;SDS011;11187;49.412;20.956;2024-03-29T09:09:49;15.43;;;14.52;;
22046;SDS011;11187;49.412;20.956;2024-03-29T09:12:21;13.40;;;12.55;;
22046;SDS011;11187;49.412;20.956;2024-03-29T09:15:07;12.73;;;11.40;;
22046;SDS011;11187;49.412;20.956;2024-03-29T09:17:45;13.63;;;10.30;;
22046;SDS011;11187;49.412;20.956;2024-03-29T09:20:33;16.00;;;12.50;;
22046;SDS011;11187;49.412;20.956;2024-03-29T09:23:05;12.32;;;10.75;;
22046;SDS011;11187;49.412;20.956;2024-03-29T09:25:54;12.98;;;11.18;;
22046;SDS011;11187;49.412;20.956;2024-03-29T09:28:27;11.98;;;11.27;;
22046;SDS011;11187;49.412;20.956;2024-03-29T09:31:15;10.48;;;9.68;;
22046;SDS011;11187;49.412;20.956;2024-03-29T09:33:47;11.35;;;10.52;;
22046;SDS011;11187;49.412;20.956;2024-03-29T09:36:36;13.07;;;12.18;;
22046;SDS011;11187;49.412;20.956;2024-03-29T09:39:08;11.27;;;10.57;;
22046;SDS011;11187;49.412;20.956;2024-03-29T09:41:54;10.10;;;9.50;;
22046;SDS011;11187;49.412;20.956;2024-03-29T09:48:08;9.65;;;9.05;;
22046;SDS011;11187;49.412;20.956;2024-03-29T09:50:40;9.80;;;9.20;;
22046;SDS011;11187;49.412;20.956;2024-03-29T09:53:36;10.65;;;9.95;;
22046;SDS011;11187;49.412;20.956;2024-03-29T09:56:30;11.30;;;10.57;;
22046;SDS011;11187;49.412;20.956;2024-03-29T09:59:23;12.45;;;11.65;;
22046;SDS011;11187;49.412;20.956;2024-03-29T10:01:58;12.32;;;11.45;;
22046;SDS011;11187;49.412;20.956;2024-03-29T10:04:45;11.50;;;10.52;;
22046;SDS011;11187;49.412;20.956;2024-03-29T10:07:19;12.13;;;11.27;;
22046;SDS011;11187;49.412;20.956;2024-03-29T10:10:06;13.20;;;12.20;;
22046;SDS011;11187;49.412;20.956;2024-03-29T10:12:38;11.45;;;10.75;;
22046;SDS011;11187;49.412;20.956;2024-03-29T10:15:24;11.30;;;10.60;;
22046;SDS011;11187;49.412;20.956;2024-03-29T10:17:59;13.25;;;11.85;;
22046;SDS011;11187;49.412;20.956;2024-03-29T10:20:45;13.77;;;12.35;;
22046;SDS011;11187;49.412;20.956;2024-03-29T10:23:18;11.55;;;10.75;;
22046;SDS011;11187;49.412;20.956;2024-03-29T10:26:04;13.38;;;12.00;;
22046;SDS011;11187;49.412;20.956;2024-03-29T10:28:36;12.95;;;12.25;;
22046;SDS011;11187;49.412;20.956;2024-03-29T10:31:33;12.57;;;11.38;;
22046;SDS011;11187;49.412;20.956;2024-03-29T10:34:27;10.15;;;9.35;;
22046;SDS011;11187;49.412;20.956;2024-03-29T10:37:21;13.90;;;12.77;;
22046;SDS011;11187;49.412;20.956;2024-03-29T10:40:15;13.13;;;12.32;;
22046;SDS011;11187;49.412;20.956;2024-03-29T10:42:48;13.43;;;12.20;;
22046;SDS011;11187;49.412;20.956;2024-03-29T10:45:35;12.80;;;12.10;;
22046;SDS011;11187;49.412;20.956;2024-03-29T10:48:29;13.65;;;12.85;;
22046;SDS011;11187;49.412;20.956;2024-03-29T10:51:23;13.05;;;12.32;;
22046;SDS011;11187;49.412;20.956;2024-03-29T10:54:16;13.10;;;12.07;;
22046;SDS011;11187;49.412;20.956;2024-03-29T10:56:51;15.35;;;14.43;;
22046;SDS011;11187;49.412;20.956;2024-03-29T11:06:05;12.90;;;12.10;;
22046;SDS011;11187;49.412;20.956;2024-03-29T11:08:38;12.57;;;11.68;;
22046;SDS011;11187;49.412;20.956;2024-03-29T11:11:28;12.55;;;11.85;;
22046;SDS011;11187;49.412;20.956;2024-03-29T11:14:06;12.05;;;11.35;;
22046;SDS011;11187;49.412;20.956;2024-03-29T11:16:57;13.90;;;12.52;;
22046;SDS011;11187;49.412;20.956;2024-03-29T11:19:30;12.55;;;11.85;;
22046;SDS011;11187;49.412;20.956;2024-03-29T11:22:17;11.98;;;11.27;;
22046;SDS011;11187;49.412;20.956;2024-03-29T11:24:53;12.93;;;11.88;;
22046;SDS011;11187;49.412;20.956;2024-03-29T11:27:39;11.13;;;10.27;;
22046;SDS011;11187;49.412;20.956;2024-03-29T11:30:11;12.38;;;11.68;;
22046;SDS011;11187;49.412;20.956;2024-03-29T11:33:02;14.20;;;13.40;;
22046;SDS011;11187;49.412;20.956;2024-03-29T11:35:39;11.65;;;10.85;;
22046;SDS011;11187;49.412;20.956;2024-03-29T11:38:35;11.93;;;11.23;;
22046;SDS011;11187;49.412;20.956;2024-03-29T11:41:11;11.45;;;10.80;;
22046;SDS011;11187;49.412;20.956;2024-03-29T11:44:09;12.75;;;12.00;;
22046;SDS011;11187;49.412;20.956;2024-03-29T11:47:02;11.50;;;10.73;;
22046;SDS011;11187;49.412;20.956;2024-03-29T11:49:56;12.52;;;11.73;;
22046;SDS011;11187;49.412;20.956;2024-03-29T11:52:49;13.00;;;12.20;;
22046;SDS011;11187;49.412;20.956;2024-03-29T11:55:21;12.38;;;11.50;;
22046;SDS011;11187;49.412;20.956;2024-03-29T11:58:07;12.00;;;11.30;;
22046;SDS011;11187;49.412;20.956;2024-03-29T12:00:39;14.18;;;13.15;;
22046;SDS011;11187;49.412;20.956;2024-03-29T12:03:27;13.35;;;12.57;;
22046;SDS011;11187;49.412;20.956;2024-03-29T12:06:01;12.65;;;11.82;;
22046;SDS011;11187;49.412;20.956;2024-03-29T12:08:47;13.48;;;12.68;;
22046;SDS011;11187;49.412;20.956;2024-03-29T12:11:20;11.70;;;11.00;;
22046;SDS011;11187;49.412;20.956;2024-03-29T12:14:15;13.98;;;13.18;;
22046;SDS011;11187;49.412;20.956;2024-03-29T12:17:08;12.45;;;11.75;;
22046;SDS011;11187;49.412;20.956;2024-03-29T12:19:43;12.27;;;11.48;;
22046;SDS011;11187;49.412;20.956;2024-03-29T12:22:34;11.80;;;11.13;;
22046;SDS011;11187;49.412;20.956;2024-03-29T12:25:06;12.25;;;11.55;;
22046;SDS011;11187;49.412;20.956;2024-03-29T12:27:53;12.55;;;11.85;;
22046;SDS011;11187;49.412;20.956;2024-03-29T12:30:26;12.50;;;11.80;;
22046;SDS011;11187;49.412;20.956;2024-03-29T12:33:12;13.10;;;12.30;;
22046;SDS011;11187;49.412;20.956;2024-03-29T12:35:58;13.10;;;12.40;;
22046;SDS011;11187;49.412;20.956;2024-03-29T12:38:38;13.30;;;12.55;;
22046;SDS011;11187;49.412;20.956;2024-03-29T12:41:17;13.90;;;13.10;;
22046;SDS011;11187;49.412;20.956;2024-03-29T12:43:56;12.40;;;11.70;;
22046;SDS011;11187;49.412;20.956;2024-03-29T12:46:49;14.10;;;13.30;;
22046;SDS011;11187;49.412;20.956;2024-03-29T12:49:42;13.45;;;12.60;;
22046;SDS011;11187;49.412;20.956;2024-03-29T12:52:14;14.25;;;13.45;;
22046;SDS011;11187;49.412;20.956;2024-03-29T12:55:00;13.80;;;13.00;;
22046;SDS011;11187;49.412;20.956;2024-03-29T12:57:32;13.25;;;12.45;;
22046;SDS011;11187;49.412;20.956;2024-03-29T13:00:28;12.50;;;11.63;;
22046;SDS011;11187;49.412;20.956;2024-03-29T13:03:21;13.20;;;12.30;;
22046;SDS011;11187;49.412;20.956;2024-03-29T13:05:53;12.10;;;11.30;;
22046;SDS011;11187;49.412;20.956;2024-03-29T13:08:40;11.23;;;10.63;;
22046;SDS011;11187;49.412;20.956;2024-03-29T13:11:12;13.85;;;12.75;;
22046;SDS011;11187;49.412;20.956;2024-03-29T13:14:05;13.10;;;12.30;;
22046;SDS011;11187;49.412;20.956;2024-03-29T13:16:38;11.50;;;10.80;;
22046;SDS011;11187;49.412;20.956;2024-03-29T13:19:24;13.13;;;12.23;;
22046;SDS011;11187;49.412;20.956;2024-03-29T13:21:56;10.40;;;9.60;;
22046;SDS011;11187;49.412;20.956;2024-03-29T13:24:42;11.23;;;10.35;;
22046;SDS011;11187;49.412;20.956;2024-03-29T13:27:15;12.93;;;12.13;;
22046;SDS011;11187;49.412;20.956;2024-03-29T13:30:01;12.25;;;11.45;;
22046;SDS011;11187;49.412;20.956;2024-03-29T13:32:37;11.13;;;10.43;;
22046;SDS011;11187;49.412;20.956;2024-03-29T13:35:24;12.35;;;11.38;;
22046;SDS011;11187;49.412;20.956;2024-03-29T13:37:56;12.95;;;11.95;;
22046;SDS011;11187;49.412;20.956;2024-03-29T13:40:43;13.63;;;12.50;;
22046;SDS011;11187;49.412;20.956;2024-03-29T13:43:15;13.52;;;12.50;;
22046;SDS011;11187;49.412;20.956;2024-03-29T13:46:01;12.52;;;11.65;;
22046;SDS011;11187;49.412;20.956;2024-03-29T13:48:54;11.48;;;10.65;;
22046;SDS011;11187;49.412;20.956;2024-03-29T13:51:47;11.77;;;10.98;;
22046;SDS011;11187;49.412;20.956;2024-03-29T13:54:19;13.70;;;12.70;;
22046;SDS011;11187;49.412;20.956;2024-03-29T13:57:05;11.07;;;10.10;;
22046;SDS011;11187;49.412;20.956;2024-03-29T13:59:38;13.02;;;12.07;;
22046;SDS011;11187;49.412;20.956;2024-03-29T14:02:24;13.95;;;12.88;;
22046;SDS011;11187;49.412;20.956;2024-03-29T14:04:59;12.65;;;11.68;;
22046;SDS011;11187;49.412;20.956;2024-03-29T14:07:52;11.68;;;10.65;;
22046;SDS011;11187;49.412;20.956;2024-03-29T14:10:45;12.93;;;12.10;;
22046;SDS011;11187;49.412;20.956;2024-03-29T14:13:17;12.10;;;11.18;;
22046;SDS011;11187;49.412;20.956;2024-03-29T14:16:03;12.20;;;11.40;;
22046;SDS011;11187;49.412;20.956;2024-03-29T14:18:36;13.52;;;12.68;;
22046;SDS011;11187;49.412;20.956;2024-03-29T14:21:22;13.05;;;11.85;;
22046;SDS011;11187;49.412;20.956;2024-03-29T14:23:54;12.60;;;11.80;;
22046;SDS011;11187;49.412;20.956;2024-03-29T14:26:44;12.93;;;11.88;;
22046;SDS011;11187;49.412;20.956;2024-03-29T14:29:23;13.25;;;12.15;;
22046;SDS011;11187;49.412;20.956;2024-03-29T14:32:02;12.00;;;11.07;;
22046;SDS011;11187;49.412;20.956;2024-03-29T14:34:41;11.27;;;10.32;;
22046;SDS011;11187;49.412;20.956;2024-03-29T14:37:20;12.00;;;11.10;;
22046;SDS011;11187;49.412;20.956;2024-03-29T14:39:59;12.20;;;11.20;;
22046;SDS011;11187;49.412;20.956;2024-03-29T14:42:46;10.98;;;10.00;;
22046;SDS011;11187;49.412;20.956;2024-03-29T14:45:25;12.57;;;11.70;;
22046;SDS011;11187;49.412;20.956;2024-03-29T14:48:04;13.70;;;12.70;;
22046;SDS011;11187;49.412;20.956;2024-03-29T14:50:43;13.25;;;12.20;;
22046;SDS011;11187;49.412;20.956;2024-03-29T14:53:22;12.77;;;11.88;;
22046;SDS011;11187;49.412;20.956;2024-03-29T14:56:01;13.27;;;12.35;;
22046;SDS011;11187;49.412;20.956;2024-03-29T14:58:40;13.93;;;12.98;;
22046;SDS011;11187;49.412;20.956;2024-03-29T15:01:19;11.85;;;10.80;;
22046;SDS011;11187;49.412;20.956;2024-03-29T15:04:05;12.35;;;11.55;;
22046;SDS011;11187;49.412;20.956;2024-03-29T15:06:37;12.63;;;11.73;;
22046;SDS011;11187;49.412;20.956;2024-03-29T15:09:24;12.32;;;11.35;;
22046;SDS011;11187;49.412;20.956;2024-03-29T15:11:56;12.80;;;11.68;;
22046;SDS011;11187;49.412;20.956;2024-03-29T15:14:42;12.48;;;11.63;;
22046;SDS011;11187;49.412;20.956;2024-03-29T15:17:14;11.68;;;10.80;;
22046;SDS011;11187;49.412;20.956;2024-03-29T15:20:00;16.77;;;15.07;;
22046;SDS011;11187;49.412;20.956;2024-03-29T15:22:36;13.13;;;11.82;;
22046;SDS011;11187;49.412;20.956;2024-03-29T15:25:35;12.27;;;11.18;;
22046;SDS011;11187;49.412;20.956;2024-03-29T15:28:29;13.07;;;12.18;;
22046;SDS011;11187;49.412;20.956;2024-03-29T15:31:26;12.40;;;11.35;;
22046;SDS011;11187;49.412;20.956;2024-03-29T15:34:07;12.48;;;11.38;;
22046;SDS011;11187;49.412;20.956;2024-03-29T15:36:47;12.88;;;11.85;;
22046;SDS011;11187;49.412;20.956;2024-03-29T15:39:26;12.32;;;11.25;;
22046;SDS011;11187;49.412;20.956;2024-03-29T15:42:07;13.60;;;12.50;;